createdAt,value
2018-03-18T00:04:55.122Z,1006.9
2018-03-18T00:15:08.584Z,1006.8
2018-03-18T00:25:31.145Z,1006.9
2018-03-18T00:35:45.322Z,1006.9
2018-03-18T00:45:59.449Z,1007.1
2018-03-18T00:56:13.447Z,1007.0
2018-03-18T01:06:28.575Z,1007.1
2018-03-18T01:16:42.222Z,1007.1
2018-03-18T01:26:56.677Z,1007.0
2018-03-18T01:37:10.904Z,1006.9
2018-03-18T01:47:25.158Z,1007.0
2018-03-18T01:57:39.282Z,1006.9
2018-03-18T02:07:50.595Z,1006.7
2018-03-18T02:18:05.013Z,1006.8
2018-03-18T02:28:19.223Z,1006.7
2018-03-18T02:38:33.306Z,1006.7
2018-03-18T02:48:44.834Z,1006.6
2018-03-18T02:58:55.899Z,1006.6
2018-03-18T03:09:09.628Z,1006.7
2018-03-18T03:19:23.643Z,1006.7
2018-03-18T03:29:35.172Z,1006.7
2018-03-18T03:40:34.065Z,1006.7
2018-03-18T03:50:48.311Z,1006.8
2018-03-18T04:01:02.378Z,1006.7
2018-03-18T04:11:22.418Z,1006.9
2018-03-18T04:21:36.091Z,1006.9
2018-03-18T04:31:57.498Z,1007.0
2018-03-18T04:42:21.022Z,1007.0
2018-03-18T04:52:44.927Z,1007.3
2018-03-18T05:03:05.298Z,1007.1
2018-03-18T05:13:19.056Z,1007.2
2018-03-18T05:23:32.354Z,1007.3
2018-03-18T05:33:47.150Z,1007.3
2018-03-18T05:44:04.519Z,1007.5
2018-03-18T05:54:21.630Z,1007.5
2018-03-18T06:04:44.419Z,1007.5
2018-03-18T06:14:57.949Z,1007.6
2018-03-18T06:25:14.256Z,1007.7
2018-03-18T06:35:26.865Z,1007.9
2018-03-18T06:45:41.644Z,1007.8
2018-03-18T06:56:05.195Z,1007.8
2018-03-18T07:06:18.546Z,1007.9
2018-03-18T07:16:30.036Z,1007.8
2018-03-18T07:26:50.231Z,1007.9
2018-03-18T07:37:48.495Z,1008.1
2018-03-18T07:48:07.466Z,1008.3
2018-03-18T07:58:28.539Z,1008.3
2018-03-18T08:08:42.241Z,1008.3
2018-03-18T08:19:02.628Z,1008.1
2018-03-18T08:29:54.965Z,1008.6
2018-03-18T08:40:08.634Z,1008.5
2018-03-18T08:50:24.786Z,1008.3
2018-03-18T09:00:36.855Z,1008.2
2018-03-18T09:11:06.729Z,1008.3
2018-03-18T09:33:54.586Z,1008.3
2018-03-18T09:44:09.213Z,1008.0
2018-03-18T09:54:55.372Z,1007.9
2018-03-18T10:05:21.572Z,1008.0
2018-03-18T10:16:42.171Z,1008.0
2018-03-18T10:27:48.805Z,1008.2
2018-03-18T10:39:09.673Z,1008.4
2018-03-18T10:50:13.891Z,1008.3
2018-03-18T11:01:30.060Z,1008.2
2018-03-18T11:12:57.658Z,1008.1
2018-03-18T11:23:43.250Z,1008.2
2018-03-18T11:34:14.304Z,1008.3
2018-03-18T11:44:29.679Z,1008.1
2018-03-18T11:54:41.644Z,1008.3
2018-03-18T12:05:27.487Z,1008.2
2018-03-18T12:16:15.994Z,1008.2
2018-03-18T12:27:05.844Z,1007.9
2018-03-18T12:37:20.362Z,1008.6
2018-03-18T12:47:34.763Z,1008.7
2018-03-18T12:58:34.881Z,1008.2
2018-03-18T13:08:48.803Z,1007.6
2018-03-18T13:19:42.694Z,1008.0
2018-03-18T13:42:29.265Z,1008.0
2018-03-18T13:52:52.862Z,1008.2
2018-03-18T15:25:33.657Z,1009.4
2018-03-18T16:10:24.115Z,1007.3
2018-03-18T16:24:39.748Z,1007.3
2018-03-18T17:23:17.495Z,1008.1
2018-03-18T17:34:28.682Z,1008.3
2018-03-18T17:44:42.558Z,1008.6
2018-03-18T18:13:20.273Z,1008.9
2018-03-18T18:27:09.445Z,1009.1
2018-03-18T18:54:25.909Z,1009.3
2018-03-18T19:07:32.092Z,1009.4
2018-03-18T19:21:32.599Z,1009.6
2018-03-18T21:01:23.689Z,1010.1
2018-03-18T21:12:09.176Z,1010.2
2018-03-18T21:22:22.743Z,1010.1
2018-03-18T21:32:59.152Z,1010.0
2018-03-18T21:43:13.420Z,1010.0
2018-03-18T21:53:27.785Z,1010.1
2018-03-18T22:03:41.565Z,1010.0
2018-03-18T22:14:27.751Z,1010.0
2018-03-18T22:24:49.219Z,1010.0
2018-03-18T22:35:52.193Z,1009.9
2018-03-18T22:46:32.670Z,1010.1
2018-03-18T22:57:02.295Z,1010.1
2018-03-18T23:07:16.547Z,1010.1
2018-03-18T23:17:31.061Z,1010.1
2018-03-18T23:28:17.622Z,1010.2
2018-03-18T23:38:37.658Z,1010.1
2018-03-18T23:48:56.159Z,1010.1
2018-03-18T23:59:17.992Z,1010.0
